Time;durP1;ratioP1;P1;durP2;ratioP2;P2;SDS_P1;SDS_P2;PMS_P1;PMS_P2;Temp;Humidity;BMP_temperature;BMP_pressure;BME280_temperature;BME280_humidity;BME280_pressure;Samples;Min_cycle;Max_cycle;Signal;HPM_P1;HPM_P2
2024/03/15 00:00:56;;;;;;;9.10;4.93;;;;;;;15.14;55.36;99003.56;6096905;23;20027;-89
2024/03/15 00:03:23;;;;;;;6.25;4.50;;;;;;;15.13;55.49;99001.88;6097209;23;20023;-88
2024/03/15 00:05:50;;;;;;;5.70;4.25;;;;;;;15.13;55.47;98996.59;6096666;23;20026;-89
2024/03/15 00:08:33;;;;;;;7.00;4.90;;;;;;;15.07;57.16;99000.63;6071995;23;20101;-89
2024/03/15 00:11:00;;;;;;;7.65;5.13;;;;;;;15.10;55.72;98987.09;6071990;23;20330;-89
2024/03/15 18:27:33;;;;;;;5.50;2.00;;;;;;;14.26;77.62;99035.75;6097988;23;20109;-88
2024/03/15 18:30:00;;;;;;;6.13;2.13;;;;;;;14.26;78.11;99033.13;6073110;23;20109;-88
2024/03/15 18:32:29;;;;;;;5.70;2.30;;;;;;;14.22;77.13;99024.59;6072862;23;20027;-88
2024/03/15 18:39:30;;;;;;;7.57;2.40;;;;;;;14.19;76.93;99033.66;6097847;23;20085;-88
2024/03/15 18:41:56;;;;;;;4.10;2.40;;;;;;;14.21;78.34;99044.09;6097800;23;20018;-88
2024/03/15 18:44:24;;;;;;;7.13;2.30;;;;;;;14.20;78.64;99055.63;6097940;23;20029;-88
2024/03/15 18:47:04;;;;;;;6.03;2.58;;;;;;;14.17;77.77;99054.09;6073492;23;20034;-89
2024/03/15 18:49:32;;;;;;;5.20;2.58;;;;;;;14.20;78.98;99056.50;6072884;23;20024;-92
2024/03/15 18:52:08;;;;;;;6.72;2.20;;;;;;;14.18;78.09;99052.28;6072754;23;20097;-88
2024/03/15 18:54:35;;;;;;;4.45;2.42;;;;;;;14.20;78.69;99059.13;6072351;23;20035;-89
2024/03/15 18:57:14;;;;;;;6.65;2.55;;;;;;;14.17;77.66;99055.91;6072697;23;20349;-88
2024/03/15 18:59:44;;;;;;;4.95;2.47;;;;;;;14.19;78.93;99062.75;6072560;23;20026;-88
2024/03/15 19:02:12;;;;;;;5.38;2.60;;;;;;;14.19;79.04;99065.41;6097701;23;20022;-89
2024/03/15 19:05:17;;;;;;;6.88;3.00;;;;;;;14.15;77.55;99071.94;6072240;23;20033;-89
2024/03/15 19:07:43;;;;;;;6.53;2.65;;;;;;;14.20;79.05;99064.44;6072147;23;20056;-89
2024/03/15 19:10:11;;;;;;;5.47;2.60;;;;;;;14.19;79.07;99064.56;6072724;23;20326;-87
2024/03/15 19:13:06;;;;;;;6.45;2.72;;;;;;;14.13;77.88;99075.66;6072236;23;20046;-88
2024/03/15 19:15:33;;;;;;;4.65;3.05;;;;;;;14.17;79.29;99069.97;6072181;23;20018;-88
2024/03/15 19:17:59;;;;;;;7.10;3.03;;;;;;;14.16;79.62;99063.00;6097724;23;20345;-88
2024/03/15 19:20:54;;;;;;;7.82;3.42;;;;;;;14.08;77.99;99073.38;6072474;23;20022;-88
2024/03/15 19:23:22;;;;;;;7.22;3.00;;;;;;;14.13;79.44;99065.91;6072307;23;20019;-88
2024/03/15 19:25:48;;;;;;;9.13;3.20;;;;;;;14.12;79.43;99072.16;6072530;23;20060;-88
2024/03/15 19:28:32;;;;;;;6.65;3.28;;;;;;;14.04;76.74;99072.81;6071994;23;20022;-88
2024/03/15 19:30:59;;;;;;;9.52;3.10;;;;;;;14.10;78.80;99067.97;6097752;23;20044;-89
2024/03/15 19:33:26;;;;;;;7.22;3.28;;;;;;;14.08;78.76;99076.03;6072190;23;20386;-88
2024/03/15 19:36:06;;;;;;;6.28;3.20;;;;;;;14.06;77.26;99089.38;6072485;23;20030;-88
2024/03/15 19:38:33;;;;;;;9.77;3.35;;;;;;;14.10;78.50;99071.47;6071988;23;20027;-89
2024/03/15 19:41:13;;;;;;;8.07;3.17;;;;;;;14.05;77.24;99073.63;6072367;23;20026;-88
2024/03/15 19:43:41;;;;;;;11.43;2.85;;;;;;;14.06;78.08;99085.94;6072164;23;20026;-88
2024/03/15 19:46:24;;;;;;;6.40;2.95;;;;;;;13.99;76.97;99077.66;6072383;23;20077;-89
2024/03/15 19:48:54;;;;;;;6.63;3.25;;;;;;;14.00;78.21;99062.59;6072297;23;20064;-88
2024/03/15 19:51:22;;;;;;;8.52;4.25;;;;;;;13.96;78.80;99063.81;6097311;23;20450;-88
2024/03/15 19:53:49;;;;;;;6.18;4.03;;;;;;;13.91;79.12;99074.78;6071916;23;20446;-88
2024/03/15 19:56:16;;;;;;;6.18;3.78;;;;;;;13.89;79.48;99077.56;6096913;23;20022;-88
2024/03/15 19:58:44;;;;;;;10.90;4.38;;;;;;;13.87;79.78;99073.38;6072207;23;20082;-88
2024/03/15 20:01:17;;;;;;;5.22;3.72;;;;;;;13.84;79.75;99074.47;6071831;23;20081;-89
2024/03/15 20:03:45;;;;;;;;;;;;;;;13.85;78.53;99080.56;6072461;23;20073;-88
2024/03/15 20:06:17;;;;;;;6.15;3.90;;;;;;;13.88;79.99;99075.88;6071783;23;19917;-88
2024/03/15 20:08:47;;;;;;;7.05;4.35;;;;;;;13.84;79.61;99090.34;6072026;23;20354;-88
2024/03/15 20:11:14;;;;;;;8.38;4.20;;;;;;;13.84;80.28;99079.75;6072151;23;20030;-88
2024/03/15 20:13:57;;;;;;;8.25;4.10;;;;;;;13.78;79.79;99077.59;6097455;23;20065;-88
2024/03/15 20:16:23;;;;;;;5.72;3.90;;;;;;;13.81;80.70;99074.69;6071863;23;20018;-88
2024/03/15 20:19:05;;;;;;;8.52;4.18;;;;;;;13.77;79.96;99081.22;6072191;23;20097;-88
2024/03/15 20:21:31;;;;;;;8.05;4.32;;;;;;;13.79;81.00;99080.13;6072030;23;20075;-88
2024/03/15 20:23:59;;;;;;;10.57;4.28;;;;;;;13.80;80.98;99075.69;6071996;23;20314;-88
2024/03/15 20:26:28;;;;;;;8.75;4.72;;;;;;;13.79;80.67;99074.81;6072038;23;20058;-88
2024/03/15 20:28:55;;;;;;;10.65;4.50;;;;;;;13.79;80.82;99072.19;6071633;23;20097;-88
2024/03/15 20:31:22;;;;;;;8.95;4.53;;;;;;;13.81;80.57;99077.34;6071926;23;20077;-88
2024/03/15 20:34:02;;;;;;;10.38;4.88;;;;;;;13.74;79.97;99079.66;6096710;23;20102;-88
2024/03/15 20:36:28;;;;;;;7.75;4.97;;;;;;;13.79;80.75;99084.56;6071729;23;20022;-88
2024/03/15 20:39:35;;;;;;;7.03;4.75;;;;;;;13.73;79.86;99077.13;6096842;23;20074;-88
2024/03/15 20:42:02;;;;;;;10.75;5.80;;;;;;;13.77;80.64;99076.78;6071509;23;20018;-88
2024/03/15 20:44:48;;;;;;;8.40;5.28;;;;;;;13.70;79.81;99070.28;6096876;23;20022;-88
2024/03/15 20:47:14;;;;;;;9.82;5.00;;;;;;;13.75;80.96;99083.16;6071522;23;20033;-88
2024/03/15 20:49:41;;;;;;;7.28;5.10;;;;;;;13.74;81.29;99084.94;6071399;23;20405;-88
2024/03/15 20:52:47;;;;;;;9.55;5.20;;;;;;;13.68;80.12;99088.91;6071702;23;20030;-88
2024/03/15 20:55:14;;;;;;;7.15;4.97;;;;;;;13.72;81.16;99084.22;6071720;23;20098;-88
2024/03/15 20:57:40;;;;;;;10.50;5.78;;;;;;;13.72;81.11;99075.47;6097224;23;20045;-88
2024/03/15 21:00:22;;;;;;;8.02;5.00;;;;;;;13.67;80.41;99083.75;6096913;23;20022;-88
2024/03/15 21:02:49;;;;;;;9.43;5.50;;;;;;;13.70;81.09;99077.38;6071824;23;20103;-88
2024/03/15 21:05:16;;;;;;;8.55;5.45;;;;;;;13.68;81.20;99081.00;6071832;23;20437;-88
2024/03/15 21:07:59;;;;;;;9.55;5.40;;;;;;;13.65;80.41;99085.69;6073561;23;20027;-88
2024/03/15 21:10:26;;;;;;;;;;;;;;;13.65;79.09;99085.69;6099534;23;20030;-88
2024/03/15 21:16:40;;;;;;;8.73;4.75;;;;;;;13.67;81.01;99097.81;6098650;23;20105;-88
2024/03/15 21:19:09;;;;;;;10.23;5.35;;;;;;;13.63;80.51;99087.59;6098772;23;20019;-88
2024/03/15 21:21:36;;;;;;;8.52;4.78;;;;;;;13.61;81.13;99074.50;6073072;23;20025;-88
2024/03/15 21:24:44;;;;;;;8.48;4.95;;;;;;;13.57;79.94;99082.81;6073563;23;20450;-89
2024/03/15 21:27:12;;;;;;;9.68;5.43;;;;;;;13.57;81.00;99081.00;6073505;23;20104;-88
2024/03/15 21:33:26;;;;;;;12.07;5.68;;;;;;;13.57;81.27;99080.19;6098439;23;20115;-88
2024/03/15 21:36:22;;;;;;;9.23;5.97;;;;;;;13.50;79.88;99087.78;6073268;23;20030;-89
2024/03/15 21:38:51;;;;;;;14.65;6.93;;;;;;;13.54;81.26;99082.09;6073454;23;20053;-88
2024/03/15 21:41:17;;;;;;;11.02;6.97;;;;;;;13.52;81.25;99085.81;6073365;23;20457;-88
2024/03/15 21:44:30;;;;;;;11.65;6.65;;;;;;;13.48;80.09;99092.31;6073365;23;20453;-88
2024/03/15 21:46:57;;;;;;;10.75;7.20;;;;;;;13.53;81.32;99092.81;6098464;23;20106;-89
2024/03/15 21:49:24;;;;;;;12.73;7.60;;;;;;;13.52;81.44;99099.91;6072958;23;20022;-89
2024/03/15 21:52:14;;;;;;;12.48;7.35;;;;;;;13.48;80.31;99101.09;6073337;23;20501;-88
2024/03/15 21:54:42;;;;;;;15.10;8.18;;;;;;;13.53;81.54;99114.78;6073268;23;20054;-88
2024/03/15 21:57:11;;;;;;;13.98;8.38;;;;;;;13.52;81.17;99109.63;6096782;23;20029;-88
2024/03/15 21:59:43;;;;;;;11.60;7.75;;;;;;;13.52;81.50;99109.63;6073305;23;20026;-88
2024/03/15 22:02:13;;;;;;;13.55;8.52;;;;;;;13.51;80.28;99118.53;6098548;23;20445;-88
2024/03/15 22:04:48;;;;;;;16.15;8.68;;;;;;;13.49;80.59;99123.09;6073125;23;20023;-88
2024/03/15 22:07:14;;;;;;;15.02;9.15;;;;;;;13.49;81.07;99112.53;6073178;23;20127;-88
2024/03/15 22:09:41;;;;;;;12.85;8.38;;;;;;;13.48;81.30;99121.41;6099862;23;20348;-93
2024/03/15 22:15:32;;;;;;;14.38;8.45;;;;;;;13.45;81.13;99122.47;6098809;23;20026;-92
2024/03/15 22:21:46;;;;;;;14.45;8.45;;;;;;;13.41;80.94;99126.31;6098211;23;20463;-92
2024/03/15 22:24:13;;;;;;;13.73;8.45;;;;;;;13.40;81.27;99120.19;6072602;23;20038;-92
2024/03/15 22:26:40;;;;;;;15.20;8.10;;;;;;;13.38;80.86;99137.16;6096710;23;20513;-92
2024/03/15 22:29:08;;;;;;;11.70;7.82;;;;;;;13.35;81.01;99119.69;6098466;23;20143;-92
2024/03/15 22:35:16;;;;;;;16.50;7.63;;;;;;;13.32;81.13;99127.91;6098073;23;20086;-92
2024/03/15 22:37:54;;;;;;;10.20;6.97;;;;;;;13.27;79.84;99135.34;6097872;23;20019;-92
2024/03/15 22:40:21;;;;;;;10.85;7.45;;;;;;;13.29;81.20;99128.13;6072833;23;20054;-92
2024/03/15 22:42:47;;;;;;;14.00;7.07;;;;;;;13.27;81.03;99124.78;6097759;23;20025;-93
2024/03/15 22:49:01;;;;;;;17.27;6.72;;;;;;;13.24;81.12;99131.13;6097906;23;20040;-92
2024/03/15 22:51:28;;;;;;;15.60;7.32;;;;;;;13.23;81.30;99139.19;6097873;23;20026;-92
2024/03/15 22:53:55;;;;;;;11.40;6.70;;;;;;;13.21;80.95;99141.94;6072937;23;20022;-92
2024/03/15 22:56:32;;;;;;;14.63;7.82;;;;;;;13.15;80.01;99142.41;6096928;23;20033;-92
2024/03/15 22:58:58;;;;;;;13.15;7.13;;;;;;;13.19;81.32;99145.69;6097898;23;20022;-92
2024/03/15 23:01:54;;;;;;;12.45;6.95;;;;;;;13.12;79.99;99138.22;6072826;23;20101;-92
2024/03/15 23:04:22;;;;;;;11.77;6.60;;;;;;;13.18;81.61;99139.53;6072997;23;20022;-92
2024/03/15 23:07:01;;;;;;;13.05;5.80;;;;;;;13.14;80.40;99136.31;6072904;23;20089;-92
2024/03/15 23:09:29;;;;;;;17.33;5.88;;;;;;;13.17;81.30;99135.22;6072904;23;20065;-92
2024/03/15 23:11:55;;;;;;;14.07;5.72;;;;;;;13.18;81.38;99133.41;6072753;23;20104;-92
2024/03/15 23:14:42;;;;;;;12.23;5.88;;;;;;;13.13;79.96;99139.88;6097796;23;20048;-92
2024/03/15 23:17:10;;;;;;;10.60;5.15;;;;;;;13.17;81.04;99143.16;6072831;23;20522;-92
2024/03/15 23:19:48;;;;;;;15.90;5.07;;;;;;;13.11;79.90;99131.25;6072258;23;20379;-92
2024/03/15 23:22:15;;;;;;;11.52;4.90;;;;;;;13.14;81.38;99133.66;6072730;23;20030;-92
2024/03/15 23:24:58;;;;;;;15.73;5.07;;;;;;;13.09;79.88;99135.78;6072886;23;20099;-92
2024/03/15 23:27:25;;;;;;;20.27;5.00;;;;;;;13.14;80.95;99135.44;6072798;23;20054;-92
2024/03/15 23:30:07;;;;;;;11.30;4.40;;;;;;;13.09;79.76;99141.09;6097657;23;20037;-92
2024/03/15 23:32:33;;;;;;;14.57;4.63;;;;;;;13.14;81.16;99135.44;6072734;23;20120;-92
2024/03/15 23:35:00;;;;;;;15.82;4.50;;;;;;;13.12;81.08;99138.22;6072589;23;20093;-92
2024/03/15 23:37:47;;;;;;;11.35;4.22;;;;;;;13.08;79.91;99135.94;6097440;23;20034;-92
2024/03/15 23:40:14;;;;;;;16.33;4.85;;;;;;;13.11;81.00;99139.19;6072139;23;20453;-92
2024/03/15 23:42:48;;;;;;;13.30;4.85;;;;;;;13.09;80.38;99127.88;6072579;23;20397;-92
2024/03/15 23:45:15;;;;;;;9.68;4.25;;;;;;;13.11;81.27;99136.53;6097181;23;20441;-92
2024/03/15 23:47:42;;;;;;;12.88;5.22;;;;;;;13.12;81.19;99134.75;6072654;23;20026;-92
2024/03/15 23:50:09;;;;;;;10.55;4.20;;;;;;;13.13;81.20;99139.06;6072196;23;20030;-92
2024/03/15 23:52:36;;;;;;;14.27;4.72;;;;;;;13.11;81.13;99141.81;6097269;23;20109;-92
2024/03/15 23:58:50;;;;;;;12.68;4.38;;;;;;;13.13;81.12;99128.50;6097350;23;20021;-92
